Weather observations for the past three days for
Weatherford, Thomas P Stafford Airport
Metric (Imperial)
Date Time (cdt) Wind (kph) Vis. (km) Weather Sky Cond. Temperature (ºC) Relative Humidity Wind Chill (°C) Heat Index (°C) Pressure Precipitation (cm)
Air Dwpt 6 hour altimeter (cm) sea level (mb) 1 hr 3 hr 6 hr
Max. Min.
04 00:10 S 22 16.09 Fair CLR 27.1 21.2 70% 29 75.97 0.0
03 23:50 S 24 16.09 Fair CLR 27.4 21.2 69% 29 75.97 0.0
03 23:30 S 24 16.09 Fair CLR 27.7 21.1 67% 30 75.97 0.0
03 23:10 SE 20 16.09 Fair CLR 28 21 66% 30 76 0.0
03 22:50 SE 19 16.09 Fair CLR 28.3 20.9 64% 30 76 0.0
03 22:30 SE 24 16.09 Fair CLR 28.7 20.7 62% 31 76 0.0
03 22:10 SE 24 16.09 Fair CLR 29 20.3 59% 31 76 0.0
03 21:50 SE 19 16.09 Fair CLR 29.3 19.5 56% 31 75.97 0.0
03 21:30 SE 19 16.09 Fair CLR 29.9 19.3 53% 31 75.95 0.0
03 21:10 SE 19 16.09 Fair CLR 30.3 19.1 51% 32 75.95 0.0
03 20:50 SE 17 16.09 Fair CLR 30.9 19 49% 32 75.92 0.0
03 20:30 SE 19 16.09 Fair CLR 31.3 18.6 47% 32 75.9 0.0
03 20:10 SE 20 16.09 Fair CLR 32.1 18.1 43% 33 75.87 0.0
03 19:50 SE 24 16.09 Fair CLR 32.7 18 42% 34 75.84 0.0
03 19:30 SE 26 16.09 Fair CLR 33.6 17.8 39% 35 75.84 0.0
03 19:10 SE 28 16.09 Fair CLR 34.5 18 38% 36 75.82 0.0
03 18:50 SE 28 16.09 Fair CLR 35.2 18.3 38.4 34.4 37% 37 75.82 0.0
03 18:30 SE 28 16.09 Fair CLR 36.1 18.4 35% 38 75.79 0.0
03 18:10 SE 30 16.09 Fair CLR 36.6 18.6 35% 38 75.79 0.0
03 17:50 S 20 16.09 Fair CLR 37 18.4 33% 39 75.79 0.0
03 17:30 SE 24 16.09 Fair CLR 37.4 18.5 33% 39 75.79 0.0
03 17:10 SE 24 G 35 16.09 Fair CLR 37.7 18.2 32% 40 75.79 0.0
03 16:50 S 26 16.09 Fair CLR 37.8 17.6 30% 39 75.79 0.0
03 16:30 SE 19 16.09 Fair CLR 37.7 17.2 30% 39 75.82 0.0
03 16:20 S 22 16.09 Fair CLR 37.7 17.6 31% 39 75.82 0.0
03 13:50 SE 19 16.09 Fair CLR 36.3 19 36% 38 75.95 0.0
03 13:30 S 19 16.09 Fair CLR 36 19.3 37% 38 75.97 0.0
03 13:10 S 17 16.09 Fair CLR 35.5 19.7 39% 38 76 0.0
03 12:50 SE 17 16.09 Fair CLR 34.9 19.8 35.1 24.5 41% 37 76.02 0.0
03 12:30 S 20 16.09 Fair CLR 34 19.8 43% 36 76.05 0.0
03 12:10 S 15 16.09 Fair CLR 33.4 19.9 45% 36 76.05 0.0
03 11:50 S 15 16.09 Fair CLR 32.8 20.2 47% 35 76.07 0.0
03 11:30 S 19 16.09 Fair CLR 31.6 20 50% 34 76.07 0.0
03 11:10 SE 20 16.09 Fair CLR 31.3 20.3 52% 34 76.07 0.0
03 10:50 S 20 16.09 Fair CLR 30.4 20.2 54% 32 76.07 0.0
03 10:30 S 19 16.09 Fair CLR 29.6 20.1 57% 32 76.1 0.0
03 10:10 S 20 16.09 Fair CLR 28.4 19.9 60% 30 76.1 0.0
03 09:50 S 19 16.09 Fair CLR 28.1 20 61% 30 76.1 0.0
03 09:30 S 19 16.09 Fair CLR 27.1 19.9 65% 29 76.1 0.0
03 09:10 SE 24 16.09 Fair CLR 27 19.9 65% 28 76.1 0.0
03 08:50 S 19 16.09 Fair CLR 26.5 19.8 67% 28 76.12 0.0
03 08:30 S 17 16.09 Fair CLR 25.9 19.6 68% 27 76.12 0.0
03 08:10 S 19 16.09 Fair CLR 25.2 19.5 71% 26 76.12 0.0
03 07:50 S 15 16.09 Fair CLR 24.8 19.5 72% 26 76.1 0.0
03 07:30 S 15 16.09 Fair CLR 24.6 19.4 73% 25 76.1 0.0
03 07:10 S 15 16.09 Fair CLR 24.6 19.3 72% 25 76.1 0.0
03 06:50 S 17 16.09 Fair CLR 24.7 19.3 28.7 24.6 72% 26 76.07 0.0
03 06:30 S 19 16.09 Fair CLR 24.9 19.3 71% 26 76.07 0.0
03 06:10 S 15 16.09 Fair CLR 25.1 19.2 70% 26 76.07 0.0
03 05:50 S 19 16.09 Fair CLR 25.3 19.2 69% 26 76.07 0.0
03 05:30 S 19 16.09 Fair CLR 25.7 19.2 67% 27 76.07 0.0
03 05:10 S 19 16.09 Fair CLR 26 19.1 66% 27 76.07 0.0
03 04:50 S 22 16.09 Fair CLR 26.2 19 65% 27 76.07 0.0
03 04:30 S 20 G 31 16.09 Fair CLR 26.5 19 63% 28 76.07 0.0
03 04:10 S 15 16.09 Fair CLR 26.5 19 63% 28 76.1 0.0
03 03:50 S 15 16.09 Fair CLR 26.8 18.9 62% 28 76.07 0.0
03 03:30 S 20 16.09 Fair CLR 27.1 19 61% 28 76.07 0.0
03 03:10 S 17 16.09 Fair CLR 27.3 18.9 60% 28 76.07 0.0
03 02:50 S 19 16.09 Fair CLR 27.5 18.9 59% 29 76.07 0.0
03 02:30 S 15 16.09 Fair CLR 27.5 18.6 58% 29 76.07 0.0
03 02:10 S 15 16.09 Fair CLR 27.7 18.1 56% 29 76.07 0.0
03 01:50 S 17 16.09 Fair CLR 28.1 17.6 53% 29 76.07 0.0
03 01:30 S 19 16.09 Fair CLR 28.1 17.3 52% 29 76.07 0.0
03 01:10 S 15 16.09 Fair CLR 28.4 17.1 50% 29 76.05 0.0
03 00:50 S 19 16.09 Fair CLR 28.7 17.1 36.5 28.6 49% 29 76.05 0.0
03 00:30 S 19 16.09 Fair CLR 29.1 17 48% 30 76.05 0.0
03 00:10 S 19 16.09 Fair CLR 29.3 17 47% 30 76.05 0.0
02 23:50 S 20 16.09 Fair CLR 29.6 17 47% 30 76.05 0.0
02 23:30 S 22 G 30 16.09 Fair CLR 29.8 16.8 46% 30 76.02 0.0
02 23:10 S 19 16.09 Fair CLR 30 16.5 44% 30 76.02 0.0
02 22:50 S 22 16.09 Fair CLR 30.6 16.5 43% 31 76.05 0.0
02 22:30 S 20 16.09 Fair CLR 30.5 16.5 43% 31 76.05 0.0
02 22:10 SE 22 16.09 Fair CLR 30.8 16.5 42% 31 76.05 0.0
02 21:50 SE 19 16.09 Fair CLR 30.7 16.5 42% 31 76.02 0.0
02 21:30 SE 19 16.09 Fair CLR 31.1 16.4 41% 31 76.02 0.0
02 21:10 SE 19 16.09 Fair CLR 31.7 16.2 39% 32 75.97 0.0
02 20:50 SE 19 16.09 Fair CLR 32.1 15.6 37% 32 75.97 0.0
02 20:30 SE 15 16.09 Fair CLR 32.7 15.4 35% 32 75.95 0.0
02 20:10 S 13 16.09 Fair CLR 33.3 15.2 34% 33 75.95 0.0
02 19:50 S 15 16.09 Fair CLR 34.4 15.1 31% 34 75.92 0.0
02 19:30 S 15 16.09 Fair CLR 35.4 15.1 30% 35 75.92 0.0
02 19:10 S 22 16.09 Fair CLR 35.9 15 29% 36 75.95 0.0
02 18:50 S 20 G 30 16.09 Fair CLR 36.5 15.1 38.6 36 28% 36 75.95 0.0
02 18:30 S 20 16.09 Fair CLR 36.8 15.2 28% 37 75.92 0.0
02 18:10 S 28 16.09 Fair CLR 37.3 15.3 27% 37 75.92 0.0
02 17:50 S 24 16.09 Fair CLR 37.6 15.2 26% 38 75.95 0.0
02 17:30 S 20 G 31 16.09 Fair CLR 37.7 15.2 26% 38 75.95 0.0
02 17:10 S 19 G 31 16.09 Fair CLR 37.8 15.1 26% 38 75.95 0.0
02 16:50 SE 28 G 35 16.09 Fair CLR 38.2 15.3 26% 38 75.95 0.0
02 16:30 S 24 G 37 16.09 Fair CLR 37.9 15.3 26% 38 75.97 0.0
02 16:10 SE 24 16.09 Partly Cloudy SCT095 38.2 15.4 26% 38 75.97 0.0
02 15:50 S 22 G 35 16.09 Partly Cloudy SCT085 38 15.1 26% 38 76.02 0.0
02 15:30 SE 24 16.09 Partly Cloudy SCT095 38 15.9 27% 38 76.02 0.0
02 15:10 S 22 16.09 Mostly Cloudy BKN095 37.9 15.6 27% 38 76.05 0.0
02 14:50 SE 24 16.09 Partly Cloudy SCT095 SCT110 36.7 15.1 28% 37 76.07 0.0
02 14:30 S 22 16.09 Mostly Cloudy SCT085 BKN110 37.6 15 26% 38 76.1 0.0
02 14:10 S 24 G 31 16.09 Partly Cloudy SCT085 36.8 14.7 27% 37 76.12 0.0
02 13:50 S 20 G 28 16.09 Fair CLR 37.3 15.8 28% 38 76.12 0.0
02 13:30 S 19 G 33 16.09 Fair CLR 37.4 15.9 28% 38 76.15 0.0
02 13:10 SW 17 G 30 16.09 Fair CLR 36.6 16.2 30% 37 76.17 0.0
02 12:50 S 24 G 31 16.09 Fair CLR 36.5 16.6 36.6 23.7 31% 37 76.2 0.0
02 12:30 S 17 G 31 16.09 Fair CLR 36 16.6 32% 37 76.23 0.0
02 12:10 SW 17 16.09 Fair CLR 35.9 17.1 33% 37 76.23 0.0
02 11:50 S 19 G 31 16.09 Fair CLR 34.9 17.4 35% 36 76.25 0.0
02 11:30 S 22 G 30 16.09 Fair CLR 34.2 17.8 38% 35 76.25 0.0
02 11:10 S 22 G 28 16.09 Fair CLR 33.6 18.2 40% 35 76.3 0.0
02 10:50 S 13 16.09 Fair CLR 32.8 18.2 42% 34 76.28 0.0
02 10:30 S 20 16.09 Fair CLR 32 18.3 44% 33 76.28 0.0
02 10:10 S 17 16.09 Fair CLR 31.2 18.2 46% 32 76.3 0.0
02 09:50 S 17 16.09 Fair CLR 30.4 18.2 48% 31 76.3 0.0
02 09:30 S 15 16.09 Fair CLR 29.2 18.4 52% 30 76.3 0.0
02 09:10 S 19 16.09 Fair CLR 27.9 18.3 56% 29 76.3 0.0
02 08:50 S 19 16.09 Fair CLR 27.2 18.2 58% 28 76.3 0.0
02 08:30 S 17 16.09 Fair CLR 26.4 17.9 60% 27 76.3 0.0
02 08:10 S 15 16.09 Fair CLR 25.4 17.7 62% 26 76.3 0.0
02 07:50 S 11 16.09 Fair CLR 24.8 17.6 64% 26 76.3 0.0
02 07:30 SE 13 16.09 Fair CLR 24.4 17.4 65% 25 76.28 0.0
02 07:10 S 11 16.09 Fair CLR 24.3 17.4 65% 25 76.25 0.0
02 06:50 SE 9 16.09 Fair CLR 23.8 17.1 27.6 23.4 66% 76.25 0.0
02 06:30 S 7 16.09 Fair CLR 24.5 17 63% 26 76.25 0.0
02 06:10 S 7 16.09 Fair CLR 24.7 16.9 62% 26 76.23 0.0
02 05:50 SE 7 16.09 Fair CLR 23.5 16.7 66% 76.23 0.0
02 05:30 SE 9 16.09 Fair CLR 23.8 16.6 64% 76.23 0.0
02 05:10 SE 6 16.09 Fair CLR 24.9 16.5 60% 26 76.23 0.0
02 04:50 SE 7 16.09 Fair CLR 25 16.5 59% 26 76.23 0.0
02 04:30 SE 6 16.09 Fair CLR 25.1 16.4 59% 26 76.23 0.0
02 04:10 S 7 16.09 Fair CLR 26 16.5 56% 27 76.2 0.0
02 03:50 S 9 16.09 Fair CLR 26.2 16.4 55% 27 76.2 0.0
02 03:30 S 6 16.09 Fair CLR 26.1 16.2 55% 27 76.2 0.0
02 03:10 S 11 16.09 Fair CLR 26.6 16.1 53% 27 76.2 0.0
02 02:50 S 13 16.09 Fair CLR 26.9 16 51% 27 76.2 0.0
02 02:30 S 15 16.09 Fair CLR 27.1 16 51% 28 76.2 0.0
02 02:10 S 13 16.09 Fair CLR 27.1 16 51% 28 76.2 0.0
02 01:50 S 13 16.09 Fair CLR 27.1 16 51% 28 76.2 0.0
02 01:30 S 13 16.09 Fair CLR 27.4 15.9 50% 28 76.2 0.0
02 01:10 S 15 16.09 Fair CLR 27.5 15.9 49% 28 76.2 0.0
02 00:50 S 15 16.09 Fair CLR 27.4 15.8 35.7 27.3 49% 28 76.2 0.0
02 00:30 S 13 16.09 Fair CLR 27.8 15.6 47% 28 76.2 0.0
02 00:10 S 13 16.09 Fair CLR 28.6 15.5 45% 29 76.2 0.0
01 23:30 S 11 16.09 Fair CLR 29.2 15 42% 29 76.2 0.0
01 23:10 S 13 16.09 Fair CLR 28.9 14.5 41% 29 76.2 0.0
01 22:50 S 13 16.09 Fair CLR 29 14.3 41% 29 76.2 0.0
01 22:30 S 15 16.09 Fair CLR 29.2 14 39% 29 76.2 0.0
01 22:10 S 13 16.09 Fair CLR 29 13.5 39% 28 76.17 0.0
01 21:50 S 9 16.09 Fair CLR 28.8 13.1 38% 28 76.17 0.0
01 21:35 S 7 16.09 Fair CLR 29.5 13 36% 29 76.15 0.0
01 21:10 S 7 16.09 Fair CLR 30.4 12.8 34% 29 76.1 0.0
01 20:50 S 7 16.09 Fair CLR 30.9 12.7 33% 30 76.1 0.0
01 20:30 S 11 16.09 Fair CLR 31.1 12.7 32% 30 76.07 0.0
01 20:10 SE 13 16.09 Fair CLR 32.1 12.6 30% 31 76.07 0.0
01 19:50 SE 13 16.09 Fair CLR 33.5 12.3 27% 32 76.05 0.0
01 19:30 SE 15 16.09 Fair CLR 34.6 12.2 26% 33 76.07 0.0
01 19:10 S 20 16.09 Fair CLR 35.3 11.8 24% 34 76.07 0.0
01 18:50 S 19 G 30 16.09 Fair CLR 35.7 11.9 38.2 34.5 24% 34 76.07 0.0
01 18:30 SE 28 G 35 16.09 Fair CLR 36.3 12.1 23% 35 76.07 0.0
01 18:10 SE 24 16.09 Fair CLR 36.7 12.3 23% 36 76.1 0.0
01 17:50 S 24 16.09 Partly Cloudy SCT100 36.5 12.4 23% 35 76.1 0.0
01 17:30 SE 26 16.09 Partly Cloudy SCT100 36.7 12.7 24% 36 76.07 0.0
01 17:10 S 17 16.09 Partly Cloudy SCT100 36.5 12.7 24% 35 76.1 0.0
01 16:50 S 22 16.09 Fair CLR 36.1 12.5 24% 35 76.1 0.0
01 16:30 S 19 G 31 16.09 Fair CLR 36.9 12.1 22% 36 76.12 0.0
01 16:10 S 24 16.09 Partly Cloudy SCT095 37.5 11.9 21% 36 76.12 0.0
01 15:50 S 28 G 35 16.09 Partly Cloudy SCT095 36.8 12.1 22% 36 76.15 0.0
01 15:30 S 17 G 35 6.44 Mostly Cloudy with Haze BKN095 37.3 11.9 22% 36 76.17 0.0
01 15:10 S 15 16.09 Mostly Cloudy BKN095 37.3 12 22% 36 76.2 0.0
01 14:50 S 11 16.09 Partly Cloudy SCT095 37.8 12.4 22% 37 76.2 0.0
01 14:30 S 20 G 31 16.09 Mostly Cloudy BKN095 36.6 12.7 24% 36 76.23 0.0
01 14:10 S 22 16.09 Mostly Cloudy BKN095 35.9 12.9 25% 35 76.23 0.0
01 13:50 SW 11 16.09 Mostly Cloudy BKN095 34.8 13.4 27% 34 76.25 0.0
01 13:30 S 20 16.09 Mostly Cloudy BKN085 37.2 13.8 25% 37 76.25 0.0
01 13:10 S 11 16.09 Partly Cloudy SCT085 35.2 13.3 27% 34 76.3 0.0
01 12:50 S 19 G 31 16.09 Partly Cloudy SCT085 35.9 13.7 36.3 23 26% 35 76.33 0.0
01 12:30 S 19 G 37 16.09 Partly Cloudy SCT085 35.8 13.7 26% 35 76.33 0.0
01 12:10 S 20 G 30 16.09 Fair CLR 35.7 14 27% 35 76.33 0.0
01 11:50 S 17 16.09 Fair CLR 35.1 13.9 28% 34 76.35 0.0
01 11:30 S 19 G 28 16.09 Fair CLR 34.3 15.2 32% 34 76.35 0.0
01 11:10 S 24 G 33 16.09 Fair CLR 33.7 15.5 33% 34 76.38 0.0
01 10:50 S 20 16.09 Fair CLR 33 15.7 35% 33 76.35 0.0
01 10:30 S 22 16.09 Fair CLR 32.5 15.6 36% 32 76.35 0.0
01 10:10 S 24 G 30 16.09 Fair CLR 31.9 15.6 37% 32 76.38 0.0
01 09:50 SW 19 G 28 16.09 Fair CLR 31 15.3 39% 31 76.38 0.0
01 09:30 S 11 16.09 Fair CLR 30.1 15.2 40% 30 76.38 0.0
01 09:10 S 15 16.09 Fair CLR 29.1 15.2 43% 29 76.4 0.0
01 08:50 S 13 16.09 Fair CLR 27.8 15.2 46% 28 76.4 0.0
01 08:30 S 9 16.09 Fair CLR 26.6 15.2 50% 27 76.38 0.0
01 08:10 SE 9 16.09 Fair CLR 25.3 15.1 53% 26 76.38 0.0
01 07:50 S 9 16.09 Fair CLR 24.5 14.7 54% 26 76.38 0.0
01 07:30 S 6 16.09 Fair CLR 23.8 14.7 57% 76.35 0.0
01 07:10 SE 7 16.09 Fair CLR 23.8 14.6 56% 76.35 0.0
01 06:50 SE 7 16.09 Fair CLR 23.3 14.4 27.9 22.2 57% 76.33 0.0
01 06:30 SE 6 16.09 Fair CLR 23.7 14.3 56% 76.3 0.0
01 06:10 Calm 16.09 Fair CLR 22.8 14.2 58% 76.3 0.0
01 05:50 Calm 16.09 Fair CLR 22.9 14.1 58% 76.3 0.0
01 05:30 Calm 16.09 Fair CLR 25 14.4 52% 26 76.3 0.0
01 05:10 S 7 16.09 Fair CLR 25.2 14.4 51% 26 76.28 0.0
01 04:50 S 7 16.09 Fair CLR 26.1 14.4 49% 27 76.28 0.0
01 04:30 S 7 16.09 Fair CLR 26.1 14.2 48% 27 76.28 0.0
01 04:10 S 9 16.09 Fair CLR 26 14.1 48% 26 76.28 0.0
01 03:50 S 9 16.09 Fair CLR 27.2 14.1 45% 27 76.25 0.0
01 03:30 S 9 16.09 Fair CLR 27.8 14.2 43% 28 76.25 0.0
01 03:10 S 13 16.09 Fair CLR 27.7 14.1 43% 28 76.25 0.0
01 02:50 S 15 16.09 Fair CLR 27.8 14 43% 28 76.25 0.0
01 02:30 S 13 16.09 Fair CLR 27.8 13.9 43% 28 76.25 0.0
01 02:10 S 13 16.09 Fair CLR 27.7 13.8 42% 28 76.28 0.0
01 01:50 S 17 16.09 Fair CLR 27.9 13.8 42% 28 76.28 0.0
01 01:30 S 17 16.09 Fair CLR 27.4 13.6 43% 27 76.28 0.0
01 01:10 S 13 16.09 Fair CLR 27.4 13.4 42% 27 76.28 0.0
01 00:50 S 15 16.09 Fair CLR 27.8 13.3 35.8 27.7 41% 28 76.28 0.0
01 00:30 S 13 16.09 Fair CLR 27.9 13.1 40% 28 76.28 0.0
Date Time (cdt) Wind (kph) Vis. (km) Weather Sky Cond. Air Dwpt Max. Min. Relative Humidity Wind Chill (°C) Heat Index (°C) altimeter (cm) sea level (mb) 1 hr 3 hr 6 hr
6 hour
Temperature (ºC) Pressure Precipitation (cm)